createdAt,value
2023-04-05T00:01:29.264Z,3.10
2023-04-05T00:06:31.615Z,3.20
2023-04-05T00:11:34.026Z,3.20
2023-04-05T00:16:36.476Z,2.90
2023-04-05T00:21:39.621Z,3.00
2023-04-05T00:26:43.881Z,2.80
2023-04-05T00:31:45.682Z,2.80
2023-04-05T00:36:47.464Z,2.80
2023-04-05T00:41:49.196Z,2.70
2023-04-05T00:46:51.568Z,2.60
2023-04-05T00:51:53.584Z,2.50
2023-04-05T00:57:02.048Z,2.40
2023-04-05T01:02:16.910Z,2.50
2023-04-05T01:07:45.977Z,2.60
2023-04-05T01:12:48.335Z,2.70
2023-04-05T01:17:50.089Z,2.70
2023-04-05T01:23:22.983Z,2.80
2023-04-05T01:28:27.665Z,2.80
2023-04-05T01:33:34.661Z,2.80
2023-04-05T01:38:39.217Z,3.10
2023-04-05T01:43:41.078Z,3.10
2023-04-05T01:48:42.847Z,3.20
2023-04-05T01:53:44.502Z,3.10
2023-04-05T01:58:46.325Z,2.90
2023-04-05T02:03:48.159Z,3.10
2023-04-05T02:08:49.897Z,3.00
2023-04-05T02:13:51.634Z,2.80
2023-04-05T02:18:57.937Z,2.70
2023-04-05T02:23:59.830Z,2.70
2023-04-05T02:29:01.554Z,2.70
2023-04-05T02:34:03.397Z,2.60
2023-04-05T02:39:05.074Z,2.90
2023-04-05T02:44:06.780Z,2.80
2023-04-05T02:49:08.502Z,2.80
2023-04-05T02:54:10.233Z,2.70
2023-04-05T02:59:13.651Z,2.80
2023-04-05T03:04:17.338Z,2.60
2023-04-05T03:09:19.058Z,2.80
2023-04-05T03:14:20.922Z,2.60
2023-04-05T03:19:24.055Z,2.80
2023-04-05T03:24:25.806Z,2.60
2023-04-05T03:29:27.766Z,2.40
2023-04-05T03:34:30.760Z,2.20
2023-04-05T03:39:32.547Z,2.30
2023-04-05T03:44:34.256Z,2.10
2023-04-05T03:49:35.987Z,1.70
2023-04-05T03:54:37.665Z,1.60
2023-04-05T03:59:39.388Z,1.50
2023-04-05T04:04:41.210Z,1.40
2023-04-05T04:09:43.052Z,1.50
2023-04-05T04:14:44.754Z,1.60
2023-04-05T04:19:46.452Z,1.30
2023-04-05T04:24:50.168Z,1.20
2023-04-05T04:30:01.487Z,1.50
2023-04-05T04:35:05.197Z,1.50
2023-04-05T04:40:08.964Z,1.50
2023-04-05T04:45:11.709Z,1.70
2023-04-05T04:50:14.199Z,1.60
2023-04-05T04:55:16.269Z,1.40
2023-04-05T05:00:18.887Z,0.90
2023-04-05T05:05:23.621Z,0.90
2023-04-05T05:10:25.589Z,1.20
2023-04-05T05:15:27.446Z,1.20
2023-04-05T05:20:29.995Z,1.40
2023-04-05T05:25:31.846Z,1.20
2023-04-05T05:30:33.700Z,0.90
2023-04-05T05:35:38.055Z,1.10
2023-04-05T05:40:40.110Z,1.20
2023-04-05T05:45:42.064Z,1.40
2023-04-05T05:50:45.137Z,1.50
2023-04-05T05:55:47.297Z,1.20
2023-04-05T06:00:51.566Z,1.20
2023-04-05T06:05:54.839Z,1.40
2023-04-05T06:10:56.582Z,1.50
2023-04-05T06:16:01.061Z,1.60
2023-04-05T06:21:02.860Z,1.70
2023-04-05T06:26:04.714Z,1.90
2023-04-05T06:31:06.619Z,2.20
2023-04-05T06:36:09.140Z,2.30
2023-04-05T06:41:10.980Z,2.60
2023-04-05T06:46:13.751Z,2.90
2023-04-05T06:51:15.842Z,3.10
2023-04-05T06:56:17.612Z,3.30
2023-04-05T07:01:19.392Z,3.40
2023-04-05T07:06:23.812Z,3.70
2023-04-05T07:11:25.589Z,4.20
2023-04-05T07:16:27.493Z,4.20
2023-04-05T07:21:30.758Z,4.40
2023-04-05T07:26:35.952Z,4.80
2023-04-05T07:31:39.580Z,4.80
2023-04-05T07:36:41.866Z,5.00
2023-04-05T07:41:43.628Z,5.00
2023-04-05T07:46:49.001Z,5.30
2023-04-05T07:51:53.754Z,5.60
2023-04-05T07:56:57.626Z,5.60
2023-04-05T08:02:08.195Z,5.70
2023-04-05T08:07:15.866Z,5.70
2023-04-05T08:12:17.561Z,6.00
2023-04-05T08:17:20.229Z,6.40
2023-04-05T08:22:22.031Z,6.70
2023-04-05T08:27:23.856Z,7.10
2023-04-05T08:32:25.643Z,7.30
2023-04-05T08:37:27.954Z,7.60
2023-04-05T08:42:34.685Z,7.90
2023-04-05T08:47:38.972Z,8.00
2023-04-05T08:52:43.174Z,8.40
2023-04-05T08:57:51.274Z,8.70
2023-04-05T09:02:57.547Z,8.90
2023-04-05T09:08:00.048Z,8.90
2023-04-05T09:13:03.496Z,9.10
2023-04-05T09:18:12.369Z,9.30
2023-04-05T09:23:21.118Z,9.50
2023-04-05T09:28:22.883Z,10.20
2023-04-05T09:33:25.037Z,10.60
2023-04-05T09:38:46.294Z,10.70
2023-04-05T09:43:48.007Z,11.00
2023-04-05T09:48:51.269Z,11.60
2023-04-05T09:54:07.453Z,11.80
2023-04-05T09:59:11.436Z,12.90
2023-04-05T10:04:13.303Z,13.40
2023-04-05T10:09:15.271Z,13.40
2023-04-05T10:14:17.081Z,13.70
2023-04-05T10:19:29.199Z,13.90
2023-04-05T10:25:09.029Z,14.40
2023-04-05T10:30:12.782Z,14.70
2023-04-05T10:35:24.343Z,14.80
2023-04-05T10:40:31.162Z,15.40
2023-04-05T10:45:35.656Z,15.80
2023-04-05T10:50:37.927Z,15.80
2023-04-05T10:55:39.964Z,16.10
2023-04-05T11:00:43.071Z,16.30
2023-04-05T11:05:44.941Z,16.70
2023-04-05T11:10:53.462Z,17.30
2023-04-05T11:16:10.722Z,17.80
2023-04-05T11:21:20.043Z,17.90
2023-04-05T11:26:21.864Z,18.00
2023-04-05T11:31:26.919Z,17.90
2023-04-05T11:36:46.123Z,17.10
2023-04-05T11:42:10.189Z,17.60
2023-04-05T11:47:12.889Z,18.40
2023-04-05T11:52:17.023Z,18.60
2023-04-05T11:57:25.099Z,18.70
2023-04-05T12:02:27.032Z,18.60
2023-04-05T12:07:32.058Z,18.90
2023-04-05T12:12:43.758Z,18.60
2023-04-05T12:17:46.621Z,18.40
2023-04-05T12:22:50.108Z,18.70
2023-04-05T12:27:51.842Z,18.80
2023-04-05T12:32:55.380Z,18.20
2023-04-05T12:37:59.288Z,18.40
2023-04-05T12:43:09.243Z,18.30
2023-04-05T12:48:14.188Z,18.50
2023-04-05T12:53:21.155Z,18.30
2023-04-05T12:58:32.198Z,18.90
2023-04-05T13:03:34.315Z,17.80
2023-04-05T13:08:36.079Z,19.00
2023-04-05T13:13:37.910Z,18.80
2023-04-05T13:18:39.685Z,19.00
2023-04-05T13:23:41.746Z,19.20
2023-04-05T13:28:43.460Z,19.00
2023-04-05T13:33:45.194Z,19.00
2023-04-05T13:38:46.963Z,19.30
2023-04-05T13:43:48.693Z,19.50
2023-04-05T13:48:50.686Z,19.40
2023-04-05T13:53:52.433Z,19.20
2023-04-05T13:58:54.217Z,19.10
2023-04-05T14:03:56.329Z,18.90
2023-04-05T14:08:58.159Z,19.00
2023-04-05T14:14:00.243Z,18.90
2023-04-05T14:19:01.953Z,18.40
2023-04-05T14:24:03.688Z,18.60
2023-04-05T14:29:05.486Z,17.70
2023-04-05T14:34:07.281Z,17.80
2023-04-05T14:39:10.053Z,17.10
2023-04-05T14:44:11.748Z,17.30
2023-04-05T14:49:13.465Z,17.20
2023-04-05T14:54:15.437Z,17.60
2023-04-05T14:59:17.361Z,17.30
2023-04-05T15:04:19.262Z,16.80
2023-04-05T15:09:20.985Z,15.90
2023-04-05T15:14:31.208Z,15.50
2023-04-05T15:19:35.469Z,14.50
2023-04-05T15:24:38.165Z,15.30
2023-04-05T15:29:39.962Z,15.30
2023-04-05T15:34:41.758Z,15.90
2023-04-05T15:39:43.492Z,16.10
2023-04-05T15:44:45.371Z,16.20
2023-04-05T15:49:48.643Z,15.80
2023-04-05T15:54:50.397Z,16.00
2023-04-05T15:59:54.342Z,15.70
2023-04-05T16:04:56.032Z,15.90
2023-04-05T16:09:57.890Z,15.80
2023-04-05T16:14:59.637Z,14.70
2023-04-05T16:20:01.344Z,15.10
2023-04-05T16:25:03.442Z,14.70
2023-04-05T16:30:05.894Z,14.10
2023-04-05T16:35:07.952Z,13.80
2023-04-05T16:40:11.584Z,13.80
2023-04-05T16:45:13.595Z,13.70
2023-04-05T16:50:15.502Z,13.60
2023-04-05T16:55:17.381Z,13.40
2023-04-05T17:00:19.314Z,13.60
2023-04-05T17:05:21.558Z,13.50
2023-04-05T17:10:23.348Z,13.60
2023-04-05T17:15:25.148Z,13.50
2023-04-05T17:20:27.256Z,13.50
2023-04-05T17:25:29.250Z,13.10
2023-04-05T17:30:31.788Z,12.90
2023-04-05T17:35:33.555Z,12.70
2023-04-05T17:40:35.368Z,12.30
2023-04-05T17:45:37.235Z,12.10
2023-04-05T17:50:39.057Z,12.00
2023-04-05T17:55:40.729Z,11.70
2023-04-05T18:00:42.520Z,11.50
2023-04-05T18:05:44.475Z,11.00
2023-04-05T18:10:46.452Z,10.60
2023-04-05T18:15:55.253Z,10.10
2023-04-05T18:21:01.813Z,9.80
2023-04-05T18:26:07.793Z,9.20
2023-04-05T18:31:10.109Z,9.00
2023-04-05T18:36:12.690Z,8.20
2023-04-05T18:41:15.246Z,7.50
2023-04-05T18:46:18.648Z,7.50
2023-04-05T18:51:24.619Z,7.30
2023-04-05T18:56:27.689Z,7.00
2023-04-05T19:01:29.473Z,7.00
2023-04-05T19:06:32.272Z,6.60
2023-04-05T19:11:34.013Z,6.30
2023-04-05T19:16:35.819Z,6.10
2023-04-05T19:21:37.685Z,6.00
2023-04-05T19:26:40.260Z,6.00
2023-04-05T19:31:42.796Z,6.10
2023-04-05T19:36:44.591Z,5.70
2023-04-05T19:41:46.293Z,5.50
2023-04-05T19:46:48.099Z,5.50
2023-04-05T19:51:50.047Z,5.50
2023-04-05T19:56:51.850Z,5.50
2023-04-05T20:01:54.111Z,5.30
2023-04-05T20:06:56.186Z,5.30
2023-04-05T20:12:01.429Z,5.30
2023-04-05T20:17:04.406Z,5.20
2023-04-05T20:22:09.664Z,5.10
2023-04-05T20:27:12.663Z,5.20
2023-04-05T20:32:15.124Z,5.00
2023-04-05T20:37:16.886Z,5.10
2023-04-05T20:42:18.619Z,5.10
2023-04-05T20:47:20.277Z,5.10
2023-04-05T20:52:21.976Z,5.20
2023-04-05T20:57:23.904Z,5.20
2023-04-05T21:02:26.609Z,5.30
2023-04-05T21:07:28.382Z,5.40
2023-04-05T21:12:30.069Z,5.10
2023-04-05T21:17:31.849Z,4.90
2023-04-05T21:22:33.640Z,4.80
2023-04-05T21:27:35.324Z,5.00
2023-04-05T21:32:37.119Z,5.10
2023-04-05T21:37:38.860Z,5.00
2023-04-05T21:42:41.196Z,5.00
2023-04-05T21:47:42.910Z,4.90
2023-04-05T21:52:45.994Z,4.70
2023-04-05T21:57:47.759Z,4.60
2023-04-05T22:02:49.554Z,4.60
2023-04-05T22:07:51.307Z,4.30
2023-04-05T22:12:53.243Z,4.10
2023-04-05T22:17:55.048Z,4.00
2023-04-05T22:22:56.890Z,4.00
2023-04-05T22:28:00.463Z,4.10
2023-04-05T22:33:02.349Z,4.10
2023-04-05T22:38:04.477Z,4.20
2023-04-05T22:43:06.566Z,4.10
2023-04-05T22:48:08.382Z,4.20
2023-04-05T22:53:10.090Z,4.00
2023-04-05T22:58:11.864Z,3.70
2023-04-05T23:03:13.677Z,3.90
2023-04-05T23:08:15.514Z,3.90
2023-04-05T23:13:17.255Z,4.00
2023-04-05T23:18:22.609Z,3.90
2023-04-05T23:23:24.394Z,4.00
2023-04-05T23:28:26.224Z,3.80
2023-04-05T23:33:28.007Z,3.80
2023-04-05T23:38:29.690Z,3.70
2023-04-05T23:43:32.118Z,3.70
2023-04-05T23:48:33.855Z,3.70
2023-04-05T23:53:35.788Z,3.60
2023-04-05T23:58:37.474Z,3.40
